createdAt,value
2022-09-27T00:01:11.982Z,9.80
2022-09-27T00:03:40.610Z,9.90
2022-09-27T00:06:11.926Z,9.90
2022-09-27T00:08:39.945Z,9.80
2022-09-27T00:11:16.248Z,9.90
2022-09-27T00:13:44.340Z,9.80
2022-09-27T00:16:13.893Z,9.80
2022-09-27T00:18:42.138Z,9.80
2022-09-27T00:21:12.260Z,9.80
2022-09-27T00:23:40.974Z,9.80
2022-09-27T00:26:11.758Z,9.80
2022-09-27T00:28:41.375Z,9.70
2022-09-27T00:31:20.953Z,9.70
2022-09-27T00:33:51.507Z,9.70
2022-09-27T00:36:21.098Z,9.60
2022-09-27T00:38:49.307Z,9.60
2022-09-27T00:41:18.890Z,9.50
2022-09-27T00:43:49.960Z,9.50
2022-09-27T00:46:26.710Z,9.40
2022-09-27T00:49:03.295Z,9.40
2022-09-27T00:51:33.283Z,9.40
2022-09-27T00:54:02.455Z,9.30
2022-09-27T00:56:32.785Z,9.30
2022-09-27T00:59:07.774Z,9.30
2022-09-27T01:01:37.375Z,9.40
2022-09-27T01:04:09.520Z,9.40
2022-09-27T01:06:38.000Z,9.40
2022-09-27T01:09:09.339Z,9.50
2022-09-27T01:11:42.776Z,9.40
2022-09-27T01:14:27.084Z,9.40
2022-09-27T01:17:03.317Z,9.40
2022-09-27T01:19:57.583Z,9.50
2022-09-27T01:22:29.286Z,9.50
2022-09-27T01:25:12.691Z,9.50
2022-09-27T01:28:12.891Z,9.50
2022-09-27T01:30:50.298Z,9.40
2022-09-27T01:33:33.149Z,9.40
2022-09-27T01:36:21.972Z,9.30
2022-09-27T01:39:03.585Z,9.20
2022-09-27T01:41:38.235Z,9.20
2022-09-27T01:44:12.008Z,9.20
2022-09-27T01:46:44.500Z,9.20
2022-09-27T01:49:17.686Z,9.20
2022-09-27T01:51:49.675Z,9.20
2022-09-27T01:54:23.299Z,9.20
2022-09-27T01:56:55.067Z,9.20
2022-09-27T01:59:29.580Z,9.20
2022-09-27T02:02:02.799Z,9.20
2022-09-27T02:04:34.308Z,9.10
2022-09-27T02:07:07.907Z,9.10
2022-09-27T02:09:40.759Z,9.10
2022-09-27T02:12:14.839Z,9.10
2022-09-27T02:14:47.050Z,9.10
2022-09-27T02:17:24.462Z,9.10
2022-09-27T02:20:02.611Z,9.10
2022-09-27T02:22:36.999Z,9.00
2022-09-27T02:25:14.128Z,9.10
2022-09-27T02:27:51.093Z,9.00
2022-09-27T02:30:19.453Z,9.10
2022-09-27T02:32:48.974Z,9.10
2022-09-27T02:35:20.898Z,9.00
2022-09-27T02:37:49.233Z,8.80
2022-09-27T02:40:17.404Z,8.80
2022-09-27T02:42:46.313Z,8.70
2022-09-27T02:45:18.534Z,8.70
2022-09-27T02:48:00.804Z,8.80
2022-09-27T02:50:41.916Z,8.80
2022-09-27T02:53:17.228Z,8.80
2022-09-27T02:55:54.197Z,8.70
2022-09-27T02:58:33.003Z,8.70
2022-09-27T03:06:24.879Z,8.70
2022-09-27T03:08:53.681Z,8.70
2022-09-27T03:11:21.733Z,8.60
2022-09-27T03:14:07.827Z,8.60
2022-09-27T03:16:37.123Z,8.60
2022-09-27T03:19:05.278Z,8.60
2022-09-27T03:21:35.063Z,8.70
2022-09-27T03:24:03.421Z,8.70
2022-09-27T03:26:31.508Z,8.70
2022-09-27T03:28:59.560Z,8.80
2022-09-27T03:31:27.642Z,8.70
2022-09-27T03:33:55.849Z,8.80
2022-09-27T03:36:23.921Z,8.80
2022-09-27T03:38:53.533Z,8.80
2022-09-27T03:41:21.706Z,8.70
2022-09-27T03:43:49.941Z,8.80
2022-09-27T03:46:18.082Z,8.80
2022-09-27T03:48:46.208Z,8.80
2022-09-27T03:51:14.210Z,8.80
2022-09-27T03:53:42.952Z,8.80
2022-09-27T03:56:12.409Z,8.80
2022-09-27T03:58:40.494Z,8.80
2022-09-27T04:01:08.616Z,8.90
2022-09-27T04:03:38.176Z,8.80
2022-09-27T04:06:06.740Z,8.80
2022-09-27T04:08:34.907Z,8.80
2022-09-27T04:11:03.559Z,8.80
2022-09-27T04:13:33.004Z,8.80
2022-09-27T04:16:02.948Z,8.80
2022-09-27T04:18:31.319Z,8.80
2022-09-27T04:20:59.407Z,8.80
2022-09-27T04:23:30.158Z,8.80
2022-09-27T04:25:58.552Z,8.80
2022-09-27T04:28:28.086Z,8.80
2022-09-27T04:30:57.728Z,8.80
2022-09-27T04:33:25.959Z,8.80
2022-09-27T04:36:11.630Z,8.90
2022-09-27T04:38:39.792Z,8.80
2022-09-27T04:41:08.045Z,8.80
2022-09-27T04:43:36.127Z,8.80
2022-09-27T04:46:05.703Z,8.80
2022-09-27T04:48:33.983Z,8.80
2022-09-27T04:51:03.595Z,8.80
2022-09-27T04:53:31.999Z,8.80
2022-09-27T04:56:01.524Z,8.80
2022-09-27T04:58:29.959Z,8.80
2022-09-27T05:00:58.118Z,8.80
2022-09-27T05:03:28.346Z,8.70
2022-09-27T05:05:56.698Z,8.70
2022-09-27T05:08:24.826Z,8.60
2022-09-27T05:10:52.993Z,8.50
2022-09-27T05:13:21.072Z,8.50
2022-09-27T05:15:49.079Z,8.50
2022-09-27T05:18:18.130Z,8.40
2022-09-27T05:20:47.881Z,8.50
2022-09-27T05:23:15.901Z,8.50
2022-09-27T05:25:44.017Z,8.60
2022-09-27T05:28:12.027Z,8.70
2022-09-27T05:30:40.196Z,8.70
2022-09-27T05:33:08.220Z,8.70
2022-09-27T05:35:36.957Z,8.70
2022-09-27T05:38:06.514Z,8.70
2022-09-27T05:40:41.369Z,8.70
2022-09-27T05:43:10.258Z,8.70
2022-09-27T05:45:38.430Z,8.70
2022-09-27T05:48:06.919Z,8.70
2022-09-27T05:50:34.995Z,8.70
2022-09-27T05:53:03.168Z,8.80
2022-09-27T05:55:32.570Z,8.70
2022-09-27T05:58:02.411Z,8.80
2022-09-27T06:00:31.362Z,8.80
2022-09-27T06:03:00.987Z,8.70
2022-09-27T06:09:30.475Z,8.80
2022-09-27T06:11:59.915Z,8.80
2022-09-27T06:14:28.202Z,8.90
2022-09-27T06:16:56.301Z,8.80
2022-09-27T06:19:24.364Z,8.80
2022-09-27T06:21:52.356Z,8.80
2022-09-27T06:24:20.390Z,8.90
2022-09-27T06:26:48.448Z,8.90
2022-09-27T06:29:17.817Z,8.90
2022-09-27T06:31:46.038Z,9.00
2022-09-27T06:34:14.083Z,9.00
2022-09-27T06:36:43.692Z,9.00
2022-09-27T06:39:12.770Z,9.10
2022-09-27T06:41:41.192Z,9.10
2022-09-27T06:44:09.250Z,9.20
2022-09-27T06:46:39.922Z,9.10
2022-09-27T06:49:08.790Z,9.20
2022-09-27T06:51:36.869Z,9.40
2022-09-27T06:54:04.982Z,9.50
2022-09-27T06:56:33.020Z,10.80
2022-09-27T06:59:18.652Z,12.30
2022-09-27T07:01:48.119Z,14.00
2022-09-27T07:04:16.235Z,14.70
2022-09-27T07:06:44.268Z,15.20
2022-09-27T07:09:12.440Z,16.20
2022-09-27T07:11:42.294Z,17.30
2022-09-27T07:14:10.787Z,18.30
2022-09-27T07:16:38.861Z,17.80
2022-09-27T07:19:11.615Z,16.80
2022-09-27T07:21:39.824Z,15.60
2022-09-27T07:24:07.996Z,15.20
2022-09-27T07:26:35.996Z,14.30
2022-09-27T07:29:04.060Z,13.30
2022-09-27T07:31:32.113Z,12.60
2022-09-27T07:34:00.222Z,12.10
2022-09-27T07:36:31.117Z,11.80
2022-09-27T07:39:00.389Z,11.60
2022-09-27T07:41:28.495Z,11.30
2022-09-27T07:43:57.240Z,11.10
2022-09-27T07:46:25.621Z,11.00
2022-09-27T07:48:53.678Z,10.90
2022-09-27T07:51:21.787Z,10.90
2022-09-27T07:53:51.199Z,10.90
2022-09-27T07:56:19.224Z,10.90
2022-09-27T07:58:47.776Z,10.90
2022-09-27T08:01:15.825Z,10.90
2022-09-27T08:03:44.647Z,10.80
2022-09-27T08:06:12.773Z,10.80
2022-09-27T08:08:41.559Z,10.80
2022-09-27T08:11:15.402Z,10.80
2022-09-27T08:13:43.720Z,11.00
2022-09-27T08:16:12.233Z,11.20
2022-09-27T08:18:40.356Z,11.10
2022-09-27T08:21:08.496Z,11.00
2022-09-27T08:23:37.035Z,11.00
2022-09-27T08:26:05.052Z,11.00
2022-09-27T08:36:55.797Z,11.10
2022-09-27T08:39:24.286Z,11.10
2022-09-27T08:41:57.283Z,11.00
2022-09-27T08:44:34.841Z,10.80
2022-09-27T08:47:12.804Z,10.60
2022-09-27T08:49:44.538Z,10.50
2022-09-27T08:52:21.588Z,10.50
2022-09-27T08:54:51.604Z,10.50
2022-09-27T08:57:20.306Z,10.40
2022-09-27T08:59:54.285Z,10.50
2022-09-27T09:02:26.219Z,10.50
2022-09-27T09:04:57.334Z,10.50
2022-09-27T09:07:40.544Z,10.50
2022-09-27T09:10:39.633Z,10.50
2022-09-27T09:13:19.393Z,10.60
2022-09-27T09:15:58.294Z,10.70
2022-09-27T09:18:36.038Z,10.70
2022-09-27T09:21:12.761Z,10.80
2022-09-27T09:24:10.627Z,10.90
2022-09-27T09:26:43.974Z,10.80
2022-09-27T09:29:26.578Z,10.80
2022-09-27T09:32:04.046Z,10.80
2022-09-27T09:34:36.715Z,10.70
2022-09-27T09:37:12.666Z,10.70
2022-09-27T09:39:46.798Z,10.70
2022-09-27T09:42:19.781Z,10.60
2022-09-27T09:44:54.174Z,10.60
2022-09-27T09:47:31.256Z,10.50
2022-09-27T09:50:05.981Z,10.50
2022-09-27T09:52:42.101Z,10.50
2022-09-27T09:55:20.288Z,10.50
2022-09-27T09:58:01.511Z,10.40
2022-09-27T10:00:29.565Z,10.40
2022-09-27T10:03:00.549Z,10.40
2022-09-27T10:05:29.883Z,10.50
2022-09-27T10:08:01.012Z,10.60
2022-09-27T10:10:30.868Z,10.70
2022-09-27T10:12:59.164Z,10.70
2022-09-27T10:15:30.695Z,10.70
2022-09-27T10:18:00.938Z,10.80
2022-09-27T10:20:35.288Z,10.90
2022-09-27T10:23:12.256Z,10.90
2022-09-27T10:25:53.833Z,10.90
2022-09-27T10:28:37.541Z,10.90
2022-09-27T10:31:08.013Z,11.00
2022-09-27T10:33:38.447Z,11.00
2022-09-27T10:36:23.326Z,11.00
2022-09-27T10:38:54.883Z,11.00
2022-09-27T10:41:33.594Z,11.10
2022-09-27T10:44:21.553Z,11.20
2022-09-27T10:46:51.972Z,11.20
2022-09-27T10:49:23.424Z,11.30
2022-09-27T10:51:54.070Z,11.40
2022-09-27T10:54:24.661Z,11.50
2022-09-27T10:56:59.448Z,11.70
2022-09-27T10:59:30.662Z,11.70
2022-09-27T11:01:59.849Z,11.80
2022-09-27T11:04:31.766Z,11.80
2022-09-27T11:07:15.751Z,11.80
2022-09-27T11:09:52.780Z,11.80
2022-09-27T11:12:25.296Z,11.80
2022-09-27T11:14:59.629Z,11.80
2022-09-27T11:17:38.951Z,11.90
2022-09-27T11:20:21.095Z,12.10
2022-09-27T11:23:20.602Z,12.30
2022-09-27T11:26:07.746Z,12.20
2022-09-27T11:28:45.585Z,12.30
2022-09-27T11:31:25.849Z,12.40
2022-09-27T11:34:09.656Z,12.50
2022-09-27T11:36:54.531Z,12.70
2022-09-27T11:39:29.288Z,12.70
2022-09-27T11:42:23.717Z,12.70
2022-09-27T11:45:34.354Z,12.70
2022-09-27T11:48:11.787Z,12.80
2022-09-27T11:50:56.757Z,12.70
2022-09-27T11:53:54.870Z,12.50
2022-09-27T11:56:35.654Z,12.40
2022-09-27T11:59:28.920Z,12.40
2022-09-27T12:02:13.352Z,12.50
2022-09-27T12:05:01.873Z,12.50
2022-09-27T12:07:37.632Z,12.30
2022-09-27T12:10:13.830Z,12.00
2022-09-27T12:12:45.724Z,11.90
2022-09-27T12:15:17.948Z,11.60
2022-09-27T12:17:49.692Z,11.60
2022-09-27T12:20:22.810Z,11.50
2022-09-27T12:22:59.000Z,11.40
2022-09-27T12:25:31.112Z,11.30
2022-09-27T12:28:05.270Z,11.30
2022-09-27T12:30:38.602Z,11.10
2022-09-27T12:33:14.430Z,11.10
2022-09-27T12:35:47.822Z,11.10
2022-09-27T12:38:20.649Z,11.00
2022-09-27T12:40:53.298Z,11.10
2022-09-27T12:43:23.773Z,11.10
2022-09-27T12:46:02.533Z,11.20
2022-09-27T12:48:41.839Z,11.20
2022-09-27T12:51:12.181Z,11.10
2022-09-27T12:53:53.362Z,11.20
2022-09-27T12:56:36.454Z,11.20
2022-09-27T12:59:40.344Z,11.30
2022-09-27T13:03:11.209Z,11.30
2022-09-27T13:05:57.228Z,11.30
2022-09-27T13:08:42.730Z,11.40
2022-09-27T13:11:18.733Z,11.20
2022-09-27T13:13:48.000Z,11.20
2022-09-27T13:16:16.322Z,11.10
2022-09-27T13:18:54.027Z,11.20
2022-09-27T13:22:00.530Z,11.20
2022-09-27T13:24:41.218Z,11.20
2022-09-27T13:27:40.212Z,11.20
2022-09-27T13:30:50.503Z,11.10
2022-09-27T13:33:43.237Z,11.10
2022-09-27T13:36:30.263Z,11.30
2022-09-27T13:39:22.974Z,11.40
2022-09-27T13:42:04.965Z,11.40
2022-09-27T13:44:43.145Z,11.50
2022-09-27T13:47:27.589Z,11.50
2022-09-27T13:50:00.489Z,11.70
2022-09-27T13:52:33.867Z,11.70
2022-09-27T13:55:11.322Z,11.70
2022-09-27T13:57:58.921Z,11.70
2022-09-27T14:08:43.446Z,11.70
2022-09-27T14:11:16.732Z,11.70
2022-09-27T14:13:46.966Z,11.80
2022-09-27T14:16:17.651Z,11.90
2022-09-27T14:18:50.724Z,11.80
2022-09-27T14:21:27.065Z,11.80
2022-09-27T14:23:55.173Z,11.90
2022-09-27T14:26:29.237Z,11.90
2022-09-27T14:28:57.376Z,12.10
2022-09-27T14:31:26.278Z,12.00
2022-09-27T14:34:06.613Z,12.00
2022-09-27T14:36:53.744Z,12.10
2022-09-27T14:39:25.113Z,12.10
2022-09-27T14:41:54.706Z,12.10
2022-09-27T14:44:27.968Z,12.10
2022-09-27T14:47:10.575Z,12.20
2022-09-27T14:49:48.243Z,12.10
2022-09-27T14:52:21.464Z,12.00
2022-09-27T14:54:58.589Z,11.90
2022-09-27T14:57:30.163Z,11.80
2022-09-27T14:59:59.734Z,11.70
2022-09-27T15:02:33.378Z,11.70
2022-09-27T15:05:01.612Z,11.60
2022-09-27T15:07:29.757Z,11.50
2022-09-27T15:09:59.430Z,11.50
2022-09-27T15:12:30.868Z,11.50
2022-09-27T15:15:00.127Z,11.40
2022-09-27T15:17:28.854Z,11.40
2022-09-27T15:20:01.991Z,11.30
2022-09-27T15:22:42.333Z,11.40
2022-09-27T15:25:20.719Z,11.30
2022-09-27T15:27:52.672Z,11.30
2022-09-27T15:30:30.188Z,11.20
2022-09-27T15:32:58.614Z,11.20
2022-09-27T15:35:30.027Z,11.10
2022-09-27T15:38:26.745Z,11.10
2022-09-27T15:41:13.999Z,11.10
2022-09-27T15:43:46.594Z,11.10
2022-09-27T15:46:29.789Z,11.10
2022-09-27T15:49:34.686Z,11.00
2022-09-27T15:52:05.076Z,11.10
2022-09-27T15:54:35.843Z,11.00
2022-09-27T15:57:06.110Z,11.10
2022-09-27T15:59:36.980Z,11.10
2022-09-27T16:02:11.340Z,11.10
2022-09-27T16:04:39.461Z,11.10
2022-09-27T16:10:59.587Z,11.00
2022-09-27T16:13:32.787Z,11.00
2022-09-27T16:16:03.998Z,11.00
2022-09-27T16:18:32.853Z,10.90
2022-09-27T16:21:01.136Z,10.80
2022-09-27T16:23:29.165Z,10.80
2022-09-27T16:25:59.999Z,10.80
2022-09-27T16:28:27.994Z,10.70
2022-09-27T16:30:56.104Z,10.70
2022-09-27T16:33:25.640Z,10.60
2022-09-27T16:35:53.641Z,10.60
2022-09-27T16:38:21.975Z,10.60
2022-09-27T16:40:50.047Z,10.50
2022-09-27T16:43:18.673Z,10.50
2022-09-27T16:45:46.751Z,10.50
2022-09-27T16:48:14.815Z,10.50
2022-09-27T16:51:01.670Z,10.50
2022-09-27T16:53:30.234Z,10.40
2022-09-27T16:56:00.534Z,10.40
2022-09-27T16:58:30.420Z,10.40
2022-09-27T17:00:59.901Z,10.30
2022-09-27T17:03:28.633Z,10.30
2022-09-27T17:06:02.266Z,10.30
2022-09-27T17:08:30.304Z,10.30
2022-09-27T17:11:00.210Z,10.20
2022-09-27T17:13:28.593Z,10.10
2022-09-27T17:15:56.991Z,10.10
2022-09-27T17:18:25.148Z,10.10
2022-09-27T17:20:53.162Z,10.00
2022-09-27T17:23:22.621Z,10.00
2022-09-27T17:25:50.654Z,9.90
2022-09-27T17:28:18.745Z,9.90
2022-09-27T17:30:46.752Z,9.90
2022-09-27T17:44:49.103Z,9.70
2022-09-27T17:47:34.607Z,9.70
2022-09-27T17:50:22.614Z,9.70
2022-09-27T17:52:50.598Z,9.70
2022-09-27T17:55:18.797Z,9.60
2022-09-27T17:57:48.657Z,9.60
2022-09-27T18:00:18.982Z,9.60
2022-09-27T18:02:47.130Z,9.60
2022-09-27T18:05:15.388Z,9.60
2022-09-27T18:07:43.517Z,9.60
2022-09-27T18:10:11.728Z,9.50
2022-09-27T18:12:41.181Z,9.50
2022-09-27T18:15:10.179Z,9.50
2022-09-27T18:17:39.575Z,9.50
2022-09-27T18:20:08.329Z,9.50
2022-09-27T18:22:36.549Z,9.40
2022-09-27T18:25:05.507Z,9.40
2022-09-27T18:27:34.672Z,9.40
2022-09-27T18:30:03.476Z,9.30
2022-09-27T18:32:31.498Z,9.30
2022-09-27T18:35:00.928Z,9.30
2022-09-27T18:37:31.063Z,9.30
2022-09-27T18:39:59.192Z,9.20
2022-09-27T18:42:27.281Z,9.20
2022-09-27T18:44:55.380Z,9.20
2022-09-27T18:47:23.540Z,9.20
2022-09-27T18:49:51.597Z,9.20
2022-09-27T18:52:21.008Z,9.20
2022-09-27T18:54:49.197Z,9.20
2022-09-27T18:57:17.207Z,9.20
2022-09-27T18:59:48.140Z,9.20
2022-09-27T19:02:16.231Z,9.20
2022-09-27T19:04:44.308Z,9.30
2022-09-27T19:07:12.520Z,9.30
2022-09-27T19:09:41.961Z,9.30
2022-09-27T19:12:10.425Z,9.30
2022-09-27T19:14:38.504Z,9.20
2022-09-27T19:17:06.567Z,9.20
2022-09-27T19:19:34.584Z,9.20
2022-09-27T19:22:02.815Z,9.20
2022-09-27T19:24:30.835Z,9.20
2022-09-27T19:27:00.208Z,9.30
2022-09-27T19:29:28.467Z,9.20
2022-09-27T19:31:56.505Z,9.30
2022-09-27T19:34:27.461Z,9.30
2022-09-27T19:36:55.534Z,9.20
2022-09-27T19:39:23.574Z,9.20
2022-09-27T19:41:51.634Z,9.20
2022-09-27T19:44:21.034Z,9.20
2022-09-27T19:46:49.119Z,9.20
2022-09-27T19:49:18.777Z,9.20
2022-09-27T19:51:48.966Z,9.20
2022-09-27T19:54:17.214Z,9.20
2022-09-27T19:56:45.246Z,9.20
2022-09-27T19:59:13.469Z,9.20
2022-09-27T20:01:43.774Z,9.10
2022-09-27T20:04:13.182Z,9.10
2022-09-27T20:06:41.449Z,9.10
2022-09-27T20:09:09.962Z,9.10
2022-09-27T20:11:38.124Z,9.10
2022-09-27T20:14:06.201Z,9.00
2022-09-27T20:16:36.989Z,9.00
2022-09-27T20:19:11.265Z,9.00
2022-09-27T20:21:39.316Z,8.90
2022-09-27T20:24:07.547Z,8.90
2022-09-27T20:26:36.585Z,8.90
2022-09-27T20:29:06.704Z,8.90
2022-09-27T20:31:37.146Z,8.90
2022-09-27T20:34:07.012Z,8.90
2022-09-27T20:36:38.181Z,8.90
2022-09-27T20:39:07.881Z,8.90
2022-09-27T20:41:37.581Z,8.80
2022-09-27T20:44:07.875Z,8.80
2022-09-27T20:46:37.640Z,8.70
2022-09-27T20:49:07.366Z,8.70
2022-09-27T20:51:39.357Z,8.70
2022-09-27T20:54:09.209Z,8.70
2022-09-27T20:56:38.519Z,8.70
2022-09-27T20:59:11.558Z,8.60
2022-09-27T21:01:43.642Z,8.60
2022-09-27T21:04:12.981Z,8.60
2022-09-27T21:06:42.685Z,8.60
2022-09-27T21:09:17.099Z,8.50
2022-09-27T21:11:45.819Z,8.50
2022-09-27T21:14:14.088Z,8.50
2022-09-27T21:16:42.204Z,8.50
2022-09-27T21:19:11.111Z,8.40
2022-09-27T21:21:39.175Z,8.40
2022-09-27T21:24:08.745Z,8.40
2022-09-27T21:34:18.395Z,8.40
2022-09-27T21:36:46.513Z,8.30
2022-09-27T21:39:16.864Z,8.30
2022-09-27T21:41:45.296Z,8.30
2022-09-27T21:44:13.483Z,8.30
2022-09-27T21:46:43.825Z,8.30
2022-09-27T21:49:12.114Z,8.30
2022-09-27T21:51:41.310Z,8.30
2022-09-27T21:54:11.151Z,8.20
2022-09-27T21:56:41.532Z,8.20
2022-09-27T21:59:12.498Z,8.20
2022-09-27T22:01:40.828Z,8.20
2022-09-27T22:04:09.106Z,8.20
2022-09-27T22:06:38.441Z,8.20
2022-09-27T22:09:08.561Z,8.20
2022-09-27T22:11:42.733Z,8.20
2022-09-27T22:14:11.037Z,8.20
2022-09-27T22:16:39.265Z,8.20
2022-09-27T22:19:07.419Z,8.20
2022-09-27T22:21:37.758Z,8.20
2022-09-27T22:24:08.419Z,8.20
2022-09-27T22:26:38.821Z,8.20
2022-09-27T22:29:09.330Z,8.30
2022-09-27T22:31:38.423Z,8.30
2022-09-27T22:34:10.790Z,8.30
2022-09-27T22:36:38.936Z,8.40
2022-09-27T22:39:07.318Z,8.40
2022-09-27T22:41:36.156Z,8.40
2022-09-27T22:44:04.228Z,8.50
2022-09-27T22:46:33.848Z,8.50
2022-09-27T22:49:01.953Z,8.50
2022-09-27T22:51:30.233Z,8.50
2022-09-27T22:53:58.257Z,8.50
2022-09-27T22:56:26.358Z,8.50
2022-09-27T22:58:54.380Z,8.50
2022-09-27T23:01:24.481Z,8.50
2022-09-27T23:03:55.313Z,8.50
2022-09-27T23:06:24.326Z,8.50
2022-09-27T23:08:55.079Z,8.50
2022-09-27T23:11:24.048Z,8.60
2022-09-27T23:13:52.953Z,8.50
2022-09-27T23:16:24.401Z,8.60
2022-09-27T23:18:55.181Z,8.60
2022-09-27T23:21:24.230Z,8.60
2022-09-27T23:23:55.207Z,8.50
2022-09-27T23:26:26.275Z,8.50
2022-09-27T23:28:54.865Z,8.50
2022-09-27T23:31:24.029Z,8.50
2022-09-27T23:33:54.528Z,8.50
2022-09-27T23:36:25.613Z,8.50
2022-09-27T23:38:55.043Z,8.50
2022-09-27T23:41:23.227Z,8.50
2022-09-27T23:43:51.268Z,8.50
2022-09-27T23:46:20.115Z,8.50
2022-09-27T23:48:48.254Z,8.50
2022-09-27T23:51:17.626Z,8.50
2022-09-27T23:53:45.770Z,8.60
2022-09-27T23:56:15.338Z,8.50
2022-09-27T23:58:45.092Z,8.60
